Latest Weather Observations for Cape Borda

IDS60801

Issued at 1:35 pm CST Monday 28 July 2014 (issued every 30 minutes, with the page automatically refreshed every 10 minutes)

About weather observations | Map of weather stations | Latest weather observations for SA | Other Formats
Station Details ID: 022823 Name: CAPE BORDA Lat: -35.75 Lon: 136.60 Height: 158.0 m
Data from the previous 72 hours. | See also: Recent months at Cape Borda
Date/Time
CST
Temp
°C
App
Temp
°C
Dew
Point
Rel
Hum
%
Delta-T
°C
Wind Press
QNH
hPa
Press
MSL
hPa
Rain
since 9 am
mm
Dir
 
Spd
km/h
Gust
km/h
Spd
kts
Gust
kts
28/01:30pm 15.1 9.3 11.6 79 1.9 NW 33 46 18 25 1014.0 - 0.0
28/01:00pm 15.6 10.0 11.5 76 2.2 NW 32 43 17 23 1014.6 - 0.0
28/12:30pm 15.5 9.6 11.2 75 2.3 NW 33 46 18 25 1015.3 - 0.0
28/12:00pm 15.7 9.7 10.8 72 2.6 NW 33 46 18 25 1015.8 1015.9 0.0
28/11:30am 15.0 9.9 10.7 75 2.3 NW 28 39 15 21 1016.2 - 0.0
28/11:00am 14.8 9.4 10.9 77 2.1 NW 30 44 16 24 1016.3 - 0.0
28/10:30am 14.9 9.0 10.4 74 2.4 NW 32 43 17 23 1016.4 - 0.0
28/10:00am 14.7 9.7 11.0 78 2.0 NW 28 37 15 20 1016.5 - 0.0
28/09:30am 14.6 9.5 10.6 77 2.1 NW 28 39 15 21 1016.3 - 0.0
28/09:00am 14.4 10.0 10.4 77 2.1 NW 24 33 13 18 1016.5 1016.7 0.0
28/08:30am 13.7 8.8 9.8 77 2.0 WNW 26 35 14 19 1016.5 - 0.0
28/08:00am 13.4 8.4 9.7 78 1.9 WNW 26 33 14 18 1016.5 - 0.0
28/07:30am 13.1 8.4 9.4 78 1.9 WNW 24 33 13 18 1016.3 - 0.0
28/07:00am 12.9 7.6 8.5 74 2.2 WNW 26 37 14 20 1015.9 - 0.0
28/06:30am 13.0 8.3 9.1 77 2.0 WNW 24 35 13 19 1015.8 - 0.0
28/06:00am 12.9 8.2 9.2 78 1.9 WNW 24 32 13 17 1015.7 1015.8 0.0
28/05:30am 12.8 8.0 8.8 76 2.0 WNW 24 32 13 17 1015.6 - 0.0
28/05:00am 12.8 7.8 8.2 73 2.3 WNW 24 35 13 19 1015.7 - 0.0
28/04:30am 12.9 8.1 9.0 77 2.0 WNW 24 32 13 17 1015.8 - 0.0
28/04:00am 13.0 8.6 8.8 75 2.1 WNW 22 33 12 18 1016.1 - 0.0
28/03:30am 13.4 8.2 8.9 74 2.3 W 26 37 14 20 1016.2 - 0.0
28/03:00am 13.5 8.9 9.6 77 2.0 WNW 24 35 13 19 1016.1 1016.2 0.0
28/02:30am 13.4 9.0 10.3 81 1.6 W 24 33 13 18 1016.3 - 0.0
28/02:00am 13.4 9.6 11.1 86 1.2 WNW 22 30 12 16 1016.3 - 0.0
28/01:30am 13.2 9.2 10.5 84 1.4 W 22 32 12 17 1016.3 - 0.0
28/01:00am 13.2 9.3 10.7 85 1.3 WNW 22 32 12 17 1016.5 - 0.0
28/12:30am 13.5 10.3 11.8 89 0.9 WNW 20 28 11 15 1016.6 - 0.0
28/12:00am 13.7 10.8 12.2 91 0.8 WNW 19 26 10 14 1017.0 1017.2 0.0
 
Date/Time
CST
Temp
°C
App
Temp
°C
Dew
Point
Rel
Hum
%
Delta-T
°C
Wind Press
QNH
hPa
Press
MSL
hPa
Rain
since 9 am
mm
Dir
 
Spd
km/h
Gust
km/h
Spd
kts
Gust
kts
27/11:30pm 14.0 11.1 12.9 93 0.6 W 20 30 11 16 1017.1 - 0.0
27/11:00pm 14.1 11.3 13.2 94 0.5 WNW 20 28 11 15 1017.1 - 0.0
27/10:30pm 14.2 11.7 13.5 96 0.4 WNW 19 26 10 14 1017.1 - 0.0
27/10:00pm 14.3 11.8 13.4 94 0.5 NW 19 26 10 14 1017.2 - 0.0
27/09:30pm 14.4 10.8 13.1 92 0.7 NW 24 32 13 17 1017.3 - 0.0
27/09:00pm 14.4 11.4 12.6 89 1.0 NW 20 32 11 17 1017.4 1017.6 0.0
27/08:30pm 14.4 10.9 12.2 87 1.2 NW 22 30 12 16 1017.3 - 0.0
27/08:00pm 14.3 10.3 11.7 84 1.4 NW 24 32 13 17 1017.4 - 0.0
27/07:30pm 14.3 10.5 11.3 82 1.6 NW 22 32 12 17 1017.3 - 0.0
27/07:00pm 14.5 9.7 10.3 76 2.2 NW 26 35 14 19 1017.3 - 0.0
27/06:30pm 14.4 9.9 10.0 75 2.3 NNW 24 35 13 19 1017.3 - 0.0
27/06:00pm 14.3 10.7 10.5 78 2.0 NNW 20 28 11 15 1017.2 1017.4 0.0
27/05:30pm 14.5 11.1 10.5 77 2.1 NNW 19 24 10 13 1017.1 - 0.0
27/05:00pm 15.2 11.4 9.9 70 2.8 NNW 20 28 11 15 1016.7 - 0.0
27/04:30pm 15.5 11.8 10.0 70 2.9 NNW 20 28 11 15 1016.4 - 0.0
27/04:00pm 15.7 11.0 9.4 66 3.3 NNW 24 33 13 18 1016.4 - 0.0
27/03:30pm 15.2 10.5 9.4 68 3.0 NNW 24 33 13 18 1016.4 - 0.0
27/03:00pm 15.4 9.5 9.2 66 3.2 N 30 43 16 23 1016.4 1016.6 0.0
27/02:30pm 15.0 9.8 9.0 67 3.1 NNW 26 39 14 21 1016.7 - 0.0
27/02:00pm 15.9 11.1 8.9 63 3.6 NNW 24 37 13 20 1017.0 - 0.0
27/01:30pm 14.9 9.8 9.3 69 2.9 N 26 33 14 18 1017.1 - 0.0
27/01:00pm 14.6 9.5 9.2 70 2.8 NNW 26 35 14 19 1017.7 - 0.0
27/12:30pm 14.8 9.7 9.2 69 2.9 N 26 37 14 20 1018.3 - 0.0
27/12:00pm 14.8 8.4 8.7 67 3.1 N 32 44 17 24 1018.8 1019.0 0.0
27/11:30am 14.7 8.9 9.3 70 2.8 N 30 39 16 21 1019.0 - 0.0
27/11:00am 15.6 10.4 9.0 65 3.4 N 26 43 14 23 1019.3 - 0.0
27/10:30am 14.8 9.1 8.5 66 3.2 N 28 41 15 22 1019.7 - 0.0
27/10:00am 14.4 8.5 8.9 69 2.8 N 30 43 16 23 1020.0 - 0.0
27/09:30am 13.6 8.1 9.1 74 2.3 N 28 39 15 21 1019.9 - 0.0
27/09:00am 13.6 9.1 9.9 78 1.9 N 24 35 13 19 1020.1 1020.3 0.0
27/08:30am 13.4 8.0 9.5 77 2.0 N 28 41 15 22 1020.2 - 0.0
27/08:00am 13.4 8.3 9.3 76 2.1 N 26 37 14 20 1020.4 - 0.0
27/07:30am 13.2 7.9 9.7 79 1.8 N 28 39 15 21 1020.5 - 0.0
27/07:00am 13.2 8.3 9.9 80 1.7 N 26 37 14 20 1020.3 - 0.0
27/06:30am 13.4 8.4 9.5 77 2.0 N 26 39 14 21 1020.2 - 0.0
27/06:00am 13.2 8.6 9.7 79 1.8 N 24 33 13 18 1020.3 1020.5 0.0
27/05:30am 13.3 8.8 10.0 80 1.7 N 24 33 13 18 1020.5 - 0.0
27/05:00am 13.3 7.9 9.6 78 1.9 N 28 44 15 24 1020.9 - 0.0
27/04:30am 13.2 7.8 9.5 78 1.9 N 28 37 15 20 1021.0 - 0.0
27/04:00am 13.0 8.5 9.9 81 1.6 N 24 35 13 19 1021.2 - 0.0
27/03:30am 12.6 8.2 10.5 87 1.1 N 24 35 13 19 1021.5 - 0.0
27/03:00am 12.8 8.6 11.1 89 0.9 N 24 32 13 17 1021.9 1022.1 0.0
27/02:30am 12.9 9.3 10.4 85 1.3 N 20 26 11 14 1022.1 - 0.0
27/02:00am 12.7 8.4 9.4 80 1.7 N 22 32 12 17 1022.2 - 0.0
27/01:30am 12.9 7.3 8.9 76 2.0 N 28 33 15 18 1022.3 - 0.0
27/01:00am 12.9 8.2 9.4 79 1.8 N 24 37 13 20 1022.6 - 0.0
27/12:30am 12.9 7.4 9.2 78 1.9 N 28 35 15 19 1023.0 - 0.0
27/12:00am 12.8 8.1 9.3 79 1.8 N 24 35 13 19 1023.2 1023.4 0.0
 
Date/Time
CST
Temp
°C
App
Temp
°C
Dew
Point
Rel
Hum
%
Delta-T
°C
Wind Press
QNH
hPa
Press
MSL
hPa
Rain
since 9 am
mm
Dir
 
Spd
km/h
Gust
km/h
Spd
kts
Gust
kts
26/11:30pm 12.6 7.7 10.1 85 1.3 N 26 35 14 19 1023.4 - 0.0
26/11:00pm 12.6 8.1 10.1 85 1.3 N 24 39 13 21 1023.6 - 0.0
26/10:30pm 12.5 8.5 10.6 88 1.0 N 22 32 12 17 1023.8 - 0.0
26/10:00pm 12.8 8.2 10.9 88 1.0 N 26 35 14 19 1023.8 - 0.0
26/09:30pm 13.5 8.6 10.0 79 1.8 N 26 35 14 19 1023.8 - 0.0
26/09:00pm 13.1 7.3 6.2 63 3.3 NNW 26 41 14 22 1023.9 1024.1 0.0
26/08:30pm 13.2 7.6 7.0 66 3.0 NNW 26 37 14 20 1023.9 - 0.0
26/08:00pm 13.3 7.4 7.4 67 2.9 NNW 28 37 15 20 1023.9 - 0.0
26/07:30pm 13.1 7.8 8.3 72 2.4 N 26 39 14 21 1024.0 - 0.0
26/07:00pm 13.1 9.0 10.2 82 1.5 N 22 32 12 17 1024.1 - 0.0
26/06:30pm 12.9 8.9 10.4 85 1.3 N 22 35 12 19 1023.9 - 0.0
26/06:00pm 13.0 9.0 10.3 84 1.4 N 22 33 12 18 1023.9 1024.1 0.0
26/05:30pm 13.0 9.3 10.3 84 1.4 N 20 30 11 16 1024.1 - 0.0
26/05:00pm 13.3 9.7 10.6 84 1.4 N 20 30 11 16 1024.3 - 0.0
26/04:30pm 14.0 10.0 10.4 79 1.9 N 22 30 12 16 1024.2 - 0.0
26/04:00pm 14.3 10.8 10.9 80 1.8 N 20 28 11 15 1024.2 - 0.0
26/03:30pm 14.3 10.8 10.9 80 1.8 NNW 20 28 11 15 1024.4 - 0.0
26/03:00pm 14.2 10.0 9.8 75 2.3 NNW 22 30 12 16 1024.3 1024.5 0.0
26/02:30pm 14.5 10.3 9.9 74 2.4 NNW 22 33 12 18 1024.2 - 0.0
26/02:00pm 15.2 11.4 11.3 77 2.1 NNW 22 32 12 17 1024.3 - 0.0
26/01:30pm 14.6 10.6 10.4 76 2.2 NNW 22 35 12 19 1024.4 - 0.0
26/01:00pm 15.0 11.2 11.3 78 2.0 NNW 22 32 12 17 1024.7 - 0.0
26/12:30pm 14.8 11.0 11.0 78 2.0 NNW 22 32 12 17 1025.0 - 0.0
26/12:00pm 14.7 10.7 10.3 75 2.3 NNW 22 32 12 17 1025.5 1025.7 0.0
26/11:30am 14.7 10.9 9.9 73 2.5 NNW 20 30 11 16 1025.9 - 0.0
26/11:00am 14.8 11.2 10.4 75 2.3 NNW 20 30 11 16 1026.1 - 0.0
26/10:30am 14.6 10.9 10.2 75 2.3 NNW 20 28 11 15 1026.2 - 0.0
26/10:00am 14.4 11.0 10.4 77 2.1 NNW 19 24 10 13 1026.3 - 0.0
26/09:30am 13.8 10.3 8.6 71 2.6 NW 17 20 9 11 1026.3 - 0.0
26/09:00am 13.6 10.6 9.1 74 2.3 NW 15 20 8 11 1026.0 1026.2 0.8
26/08:30am 12.5 9.9 9.3 81 1.6 WNW 13 17 7 9 1025.8 - 0.8
26/08:00am 12.2 10.1 9.6 84 1.3 NNW 11 15 6 8 1025.6 - 0.8
26/07:30am 11.3 9.4 9.1 86 1.1 NW 9 11 5 6 1025.4 - 0.8
26/07:00am 11.3 9.4 8.9 85 1.2 NW 9 11 5 6 1025.0 - 0.8
26/06:30am 10.6 9.0 8.6 87 1.0 NW 7 9 4 5 1024.7 - 0.8
26/06:00am 10.6 8.5 8.4 86 1.1 NW 9 11 5 6 1024.4 1024.6 0.8
26/05:30am 10.6 8.5 8.4 86 1.1 WNW 9 11 5 6 1024.1 - 0.8
26/05:00am 10.9 8.4 8.0 82 1.4 W 11 13 6 7 1024.2 - 0.8
26/04:30am 11.0 8.9 8.4 84 1.3 W 9 11 5 6 1024.1 - 0.8
26/04:00am 11.4 8.6 8.6 83 1.4 W 13 17 7 9 1024.0 - 0.8
26/03:30am 11.1 8.6 8.2 82 1.4 W 11 15 6 8 1023.8 - 0.8
26/03:00am 11.4 8.1 8.1 80 1.6 W 15 20 8 11 1023.9 1024.1 0.8
26/02:30am 11.3 8.9 8.5 83 1.4 W 11 15 6 8 1023.6 - 0.8
26/02:00am 11.8 8.5 8.1 78 1.8 W 15 20 8 11 1023.6 - 0.8
26/01:30am 11.6 8.4 8.4 81 1.6 W 15 20 8 11 1023.6 - 0.8
26/01:00am 11.5 8.8 8.9 84 1.3 WSW 13 17 7 9 1023.5 - 0.8
26/12:30am 11.1 8.3 8.7 85 1.2 WSW 13 17 7 9 1023.6 - 0.8
26/12:00am 11.2 8.4 8.6 84 1.3 SW 13 15 7 8 1023.7 1023.9 0.8
 
Date/Time
CST
Temp
°C
App
Temp
°C
Dew
Point
Rel
Hum
%
Delta-T
°C
Wind Press
QNH
hPa
Press
MSL
hPa
Rain
since 9 am
mm
Dir
 
Spd
km/h
Gust
km/h
Spd
kts
Gust
kts
25/11:30pm 11.0 8.2 8.4 84 1.3 SW 13 17 7 9 1023.6 - 0.8
25/11:00pm 11.7 8.8 8.3 79 1.7 WSW 13 19 7 10 1023.4 - 0.8
25/10:30pm 12.1 8.5 8.3 77 1.9 WSW 17 24 9 13 1023.2 - 0.8
25/10:00pm 12.5 9.0 8.7 77 1.9 WSW 17 26 9 14 1023.0 - 0.8
25/09:30pm 12.0 9.4 9.2 83 1.4 SW 13 19 7 10 1022.7 - 0.8
25/09:00pm 11.9 8.7 8.5 80 1.7 SW 15 20 8 11 1022.6 1022.8 0.8
25/08:30pm 12.4 8.9 8.8 79 1.8 SW 17 20 9 11 1022.4 - 0.8
25/08:00pm 12.3 8.8 8.7 79 1.8 SW 17 22 9 12 1022.1 - 0.8
25/07:30pm 12.6 9.1 8.8 77 1.9 SW 17 22 9 12 1021.9 - 0.8
25/07:00pm 12.8 9.1 9.3 79 1.8 WSW 19 26 10 14 1021.5 - 0.8
25/06:30pm 12.7 8.8 8.5 75 2.1 SW 19 28 10 15 1021.2 - 0.8
25/06:00pm 12.7 8.7 9.1 79 1.8 WSW 20 28 11 15 1020.8 1020.9 0.8
25/05:30pm 12.7 8.2 8.5 75 2.1 WSW 22 30 12 16 1020.3 - 0.8
25/05:00pm 13.1 9.2 8.5 73 2.3 SW 19 24 10 13 1020.1 - 0.8
25/04:30pm 13.7 9.3 9.0 73 2.4 SW 22 28 12 15 1019.7 - 0.8
25/04:00pm 14.1 10.1 9.0 71 2.6 SW 20 30 11 16 1019.2 - 0.8
25/03:30pm 14.3 10.2 8.8 69 2.8 WSW 20 28 11 15 1019.1 - 0.8
25/03:00pm 14.5 10.0 8.6 67 3.0 WSW 22 30 12 16 1018.7 1018.9 0.8
25/02:30pm 15.1 10.4 9.3 68 3.0 WSW 24 32 13 17 1018.3 - 0.8
25/02:00pm 14.9 11.1 9.9 72 2.6 WSW 20 32 11 17 1018.2 - 0.8

Other Formats:

Comma delimited format used in spreadsheet applications
http://www.bom.gov.au/fwo/IDS60801/IDS60801.95805.axf

JavaScript Object Notation format (JSON) in row-major order
http://www.bom.gov.au/fwo/IDS60801/IDS60801.95805.json